sensor_id;sensor_type;location;lat;lon;timestamp;pressure;altitude;pressure_sealevel;temperature;humidity
49315;BME280;36672;50.710;12.498;2022-08-19T00:01:16;97933.56;;;18.97;92.73
49315;BME280;36672;50.710;12.498;2022-08-19T00:03:41;97933.84;;;18.96;92.69
49315;BME280;36672;50.710;12.498;2022-08-19T00:06:07;97937.13;;;18.93;92.85
49315;BME280;36672;50.710;12.498;2022-08-19T00:08:32;97931.66;;;18.93;93.12
49315;BME280;36672;50.710;12.498;2022-08-19T00:10:57;97930.00;;;18.92;93.09
49315;BME280;36672;50.710;12.498;2022-08-19T00:13:22;97936.84;;;18.94;93.44
49315;BME280;36672;50.710;12.498;2022-08-19T00:15:48;97932.47;;;18.93;93.36
49315;BME280;36672;50.710;12.498;2022-08-19T00:18:13;97931.91;;;18.91;93.69
49315;BME280;36672;50.710;12.498;2022-08-19T00:20:38;97930.50;;;18.88;93.93
49315;BME280;36672;50.710;12.498;2022-08-19T00:23:05;97915.19;;;18.87;93.87
49315;BME280;36672;50.710;12.498;2022-08-19T00:25:30;97906.69;;;18.89;94.24
49315;BME280;36672;50.710;12.498;2022-08-19T00:27:55;97904.53;;;18.91;94.33
49315;BME280;36672;50.710;12.498;2022-08-19T00:30:20;97899.06;;;18.91;94.57
49315;BME280;36672;50.710;12.498;2022-08-19T00:32:46;97890.59;;;18.93;94.27
49315;BME280;36672;50.710;12.498;2022-08-19T00:35:11;97886.75;;;18.94;94.36
49315;BME280;36672;50.710;12.498;2022-08-19T00:37:37;97875.78;;;18.94;94.47
49315;BME280;36672;50.710;12.498;2022-08-19T00:40:04;97870.59;;;18.92;94.04
49315;BME280;36672;50.710;12.498;2022-08-19T00:42:29;97864.59;;;18.90;94.00
49315;BME280;36672;50.710;12.498;2022-08-19T00:44:55;97853.63;;;18.90;93.84
49315;BME280;36672;50.710;12.498;2022-08-19T00:47:20;97862.06;;;18.88;94.01
49315;BME280;36672;50.710;12.498;2022-08-19T00:49:49;97862.91;;;18.89;94.10
49315;BME280;36672;50.710;12.498;2022-08-19T00:52:35;97854.44;;;18.90;94.15
49315;BME280;36672;50.710;12.498;2022-08-19T00:55:02;97851.44;;;18.92;94.13
49315;BME280;36672;50.710;12.498;2022-08-19T00:57:38;97849.53;;;18.93;94.22
49315;BME280;36672;50.710;12.498;2022-08-19T01:00:08;97847.31;;;18.95;94.36
49315;BME280;36672;50.710;12.498;2022-08-19T01:02:35;97855.25;;;18.96;94.56
49315;BME280;36672;50.710;12.498;2022-08-19T01:05:05;97857.19;;;18.96;94.49
49315;BME280;36672;50.710;12.498;2022-08-19T01:07:31;97853.38;;;18.97;94.39
49315;BME280;36672;50.710;12.498;2022-08-19T01:09:57;97857.47;;;18.99;94.63
49315;BME280;36672;50.710;12.498;2022-08-19T01:12:22;97854.47;;;19.01;94.82
49315;BME280;36672;50.710;12.498;2022-08-19T01:14:48;97857.47;;;19.04;94.97
49315;BME280;36672;50.710;12.498;2022-08-19T01:17:14;97859.13;;;19.05;94.87
49315;BME280;36672;50.710;12.498;2022-08-19T01:19:40;97864.34;;;19.07;94.85
49315;BME280;36672;50.710;12.498;2022-08-19T01:24:51;97849.84;;;19.06;94.48
49315;BME280;36672;50.710;12.498;2022-08-19T01:27:17;97841.34;;;19.08;94.97
49315;BME280;36672;50.710;12.498;2022-08-19T01:29:43;97849.28;;;19.04;94.36
49315;BME280;36672;50.710;12.498;2022-08-19T01:32:11;97838.88;;;19.06;94.74
49315;BME280;36672;50.710;12.498;2022-08-19T01:34:36;97822.69;;;19.10;94.90
49315;BME280;36672;50.710;12.498;2022-08-19T01:37:05;97818.88;;;19.06;94.30
49315;BME280;36672;50.710;12.498;2022-08-19T01:39:31;97818.06;;;19.05;94.35
49315;BME280;36672;50.710;12.498;2022-08-19T01:41:56;97836.13;;;19.06;94.59
49315;BME280;36672;50.710;12.498;2022-08-19T01:44:22;97829.81;;;19.06;94.63
49315;BME280;36672;50.710;12.498;2022-08-19T01:46:49;97838.88;;;19.06;94.83
49315;BME280;36672;50.710;12.498;2022-08-19T01:49:16;97848.47;;;19.04;94.50
49315;BME280;36672;50.710;12.498;2022-08-19T01:51:42;97847.91;;;19.02;94.69
49315;BME280;36672;50.710;12.498;2022-08-19T01:54:08;97850.06;;;19.05;94.83
49315;BME280;36672;50.710;12.498;2022-08-19T01:56:33;97852.00;;;19.04;94.72
49315;BME280;36672;50.710;12.498;2022-08-19T01:59:00;97842.72;;;19.05;94.73
49315;BME280;36672;50.710;12.498;2022-08-19T02:01:26;97838.59;;;19.08;94.94
49315;BME280;36672;50.710;12.498;2022-08-19T02:03:51;97852.00;;;19.10;94.86
49315;BME280;36672;50.710;12.498;2022-08-19T02:06:19;97857.22;;;19.11;94.97
49315;BME280;36672;50.710;12.498;2022-08-19T02:08:44;97849.56;;;19.13;95.13
49315;BME280;36672;50.710;12.498;2022-08-19T02:11:17;97853.94;;;19.14;94.92
49315;BME280;36672;50.710;12.498;2022-08-19T02:13:43;97845.72;;;19.14;94.93
49315;BME280;36672;50.710;12.498;2022-08-19T02:16:08;97851.22;;;19.14;95.13
49315;BME280;36672;50.710;12.498;2022-08-19T02:18:34;97862.16;;;19.14;94.78
49315;BME280;36672;50.710;12.498;2022-08-19T02:21:00;97857.50;;;19.15;94.99
49315;BME280;36672;50.710;12.498;2022-08-19T02:23:25;97867.06;;;19.17;95.20
49315;BME280;36672;50.710;12.498;2022-08-19T02:25:50;97860.78;;;19.17;94.90
49315;BME280;36672;50.710;12.498;2022-08-19T02:28:16;97852.00;;;19.15;94.86
49315;BME280;36672;50.710;12.498;2022-08-19T02:30:41;97841.34;;;19.13;94.38
49315;BME280;36672;50.710;12.498;2022-08-19T02:33:07;97841.34;;;19.13;94.67
49315;BME280;36672;50.710;12.498;2022-08-19T02:35:32;97844.63;;;19.15;94.79
49315;BME280;36672;50.710;12.498;2022-08-19T02:37:57;97847.38;;;19.15;94.96
49315;BME280;36672;50.710;12.498;2022-08-19T02:40:47;97853.09;;;19.14;94.88
49315;BME280;36672;50.710;12.498;2022-08-19T02:43:14;97858.34;;;19.15;94.70
49315;BME280;36672;50.710;12.498;2022-08-19T02:45:40;97867.34;;;19.16;95.13
49315;BME280;36672;50.710;12.498;2022-08-19T02:48:05;97881.84;;;19.16;94.79
49315;BME280;36672;50.710;12.498;2022-08-19T02:50:31;97895.56;;;19.16;94.66
49315;BME280;36672;50.710;12.498;2022-08-19T02:52:57;97902.69;;;19.17;94.97
49315;BME280;36672;50.710;12.498;2022-08-19T02:55:22;97909.00;;;19.18;95.01
49315;BME280;36672;50.710;12.498;2022-08-19T02:57:48;97900.50;;;19.14;94.49
49315;BME280;36672;50.710;12.498;2022-08-19T03:00:13;97905.41;;;19.12;94.31
49315;BME280;36672;50.710;12.498;2022-08-19T03:02:39;97904.88;;;19.15;94.74
49315;BME280;36672;50.710;12.498;2022-08-19T03:05:04;97894.75;;;19.16;94.89
49315;BME280;36672;50.710;12.498;2022-08-19T03:07:30;97897.19;;;19.17;94.79
49315;BME280;36672;50.710;12.498;2022-08-19T03:09:55;97897.75;;;19.19;95.13
49315;BME280;36672;50.710;12.498;2022-08-19T03:12:21;97908.72;;;19.19;94.90
49315;BME280;36672;50.710;12.498;2022-08-19T03:14:46;97916.66;;;19.21;94.84
49315;BME280;36672;50.710;12.498;2022-08-19T03:17:11;97917.75;;;19.20;94.94
49315;BME280;36672;50.710;12.498;2022-08-19T03:19:37;97909.81;;;19.23;95.33
49315;BME280;36672;50.710;12.498;2022-08-19T03:22:03;97904.34;;;19.23;95.15
49315;BME280;36672;50.710;12.498;2022-08-19T03:24:29;97895.31;;;19.23;95.09
49315;BME280;36672;50.710;12.498;2022-08-19T03:26:55;97902.16;;;19.26;95.24
49315;BME280;36672;50.710;12.498;2022-08-19T03:29:25;97899.41;;;19.26;95.30
49315;BME280;36672;50.710;12.498;2022-08-19T03:31:50;97898.31;;;19.27;95.28
49315;BME280;36672;50.710;12.498;2022-08-19T03:34:26;97909.81;;;19.29;95.41
49315;BME280;36672;50.710;12.498;2022-08-19T03:36:54;97909.81;;;19.29;95.16
49315;BME280;36672;50.710;12.498;2022-08-19T03:39:20;97913.66;;;19.28;95.20
49315;BME280;36672;50.710;12.498;2022-08-19T03:41:46;97915.56;;;19.27;94.77
49315;BME280;36672;50.710;12.498;2022-08-19T03:44:15;97911.19;;;19.26;95.09
49315;BME280;36672;50.710;12.498;2022-08-19T03:46:40;97905.97;;;19.25;95.08
49315;BME280;36672;50.710;12.498;2022-08-19T03:49:06;97915.56;;;19.27;95.17
49315;BME280;36672;50.710;12.498;2022-08-19T03:51:36;97903.25;;;19.25;94.77
49315;BME280;36672;50.710;12.498;2022-08-19T03:54:03;97918.84;;;19.24;94.92
49315;BME280;36672;50.710;12.498;2022-08-19T03:56:29;97927.88;;;19.19;94.69
49315;BME280;36672;50.710;12.498;2022-08-19T03:58:55;97930.34;;;19.21;95.06
49315;BME280;36672;50.710;12.498;2022-08-19T04:01:22;97928.97;;;19.23;95.32
49315;BME280;36672;50.710;12.498;2022-08-19T04:03:48;97929.78;;;19.24;95.17
49315;BME280;36672;50.710;12.498;2022-08-19T04:06:18;97919.94;;;19.23;94.99
49315;BME280;36672;50.710;12.498;2022-08-19T04:08:46;97920.19;;;19.21;95.23
49315;BME280;36672;50.710;12.498;2022-08-19T04:11:14;97912.81;;;19.22;95.10
49315;BME280;36672;50.710;12.498;2022-08-19T04:13:40;97922.41;;;19.25;95.28
49315;BME280;36672;50.710;12.498;2022-08-19T04:16:05;97911.47;;;19.19;94.51
49315;BME280;36672;50.710;12.498;2022-08-19T04:18:32;97915.28;;;19.18;95.20
49315;BME280;36672;50.710;12.498;2022-08-19T04:20:58;97911.47;;;19.19;95.13
49315;BME280;36672;50.710;12.498;2022-08-19T04:23:23;97905.69;;;19.21;95.57
49315;BME280;36672;50.710;12.498;2022-08-19T04:25:49;97918.59;;;19.20;95.18
49315;BME280;36672;50.710;12.498;2022-08-19T04:28:14;97918.59;;;19.20;95.13
49315;BME280;36672;50.710;12.498;2022-08-19T04:30:43;97921.03;;;19.22;95.57
49315;BME280;36672;50.710;12.498;2022-08-19T04:33:13;97900.78;;;19.18;94.94
49315;BME280;36672;50.710;12.498;2022-08-19T04:35:43;97910.88;;;19.17;95.32
49315;BME280;36672;50.710;12.498;2022-08-19T04:38:09;97915.56;;;19.17;95.30
49315;BME280;36672;50.710;12.498;2022-08-19T04:40:48;97912.81;;;19.17;95.71
49315;BME280;36672;50.710;12.498;2022-08-19T04:43:33;97915.28;;;19.18;95.63
49315;BME280;36672;50.710;12.498;2022-08-19T04:46:04;97884.03;;;18.99;95.61
49315;BME280;36672;50.710;12.498;2022-08-19T04:48:29;97912.81;;;19.17;95.39
49315;BME280;36672;50.710;12.498;2022-08-19T04:50:55;97917.47;;;19.16;95.56
49315;BME280;36672;50.710;12.498;2022-08-19T04:53:33;97915.56;;;19.17;95.91
49315;BME280;36672;50.710;12.498;2022-08-19T04:55:59;97915.84;;;19.15;95.87
49315;BME280;36672;50.710;12.498;2022-08-19T05:01:22;97911.69;;;19.13;95.85
49315;BME280;36672;50.710;12.498;2022-08-19T05:03:48;97908.69;;;19.09;95.67
49315;BME280;36672;50.710;12.498;2022-08-19T05:06:14;97897.47;;;19.05;95.56
49315;BME280;36672;50.710;12.498;2022-08-19T05:08:40;97905.97;;;19.09;96.31
49315;BME280;36672;50.710;12.498;2022-08-19T05:11:25;97905.69;;;19.05;96.09
49315;BME280;36672;50.710;12.498;2022-08-19T05:13:51;97910.06;;;19.06;96.17
49315;BME280;36672;50.710;12.498;2022-08-19T05:16:17;97908.69;;;19.04;96.61
49315;BME280;36672;50.710;12.498;2022-08-19T05:18:43;97921.00;;;19.06;96.44
49315;BME280;36672;50.710;12.498;2022-08-19T05:21:28;97919.91;;;19.07;96.54
49315;BME280;36672;50.710;12.498;2022-08-19T05:24:12;97925.38;;;19.07;96.62
49315;BME280;36672;50.710;12.498;2022-08-19T05:26:39;97926.22;;;19.08;96.60
49315;BME280;36672;50.710;12.498;2022-08-19T05:29:05;97925.94;;;19.04;96.35
49315;BME280;36672;50.710;12.498;2022-08-19T05:31:31;97938.53;;;19.05;96.66
49315;BME280;36672;50.710;12.498;2022-08-19T05:33:56;97941.81;;;19.07;96.54
49315;BME280;36672;50.710;12.498;2022-08-19T05:36:24;97948.41;;;19.06;96.57
49315;BME280;36672;50.710;12.498;2022-08-19T05:38:49;97958.22;;;19.07;96.45
49315;BME280;36672;50.710;12.498;2022-08-19T05:41:15;97969.19;;;19.07;96.57
49315;BME280;36672;50.710;12.498;2022-08-19T05:43:41;97970.31;;;19.06;96.51
49315;BME280;36672;50.710;12.498;2022-08-19T05:46:07;97977.38;;;19.02;96.04
49315;BME280;36672;50.710;12.498;2022-08-19T05:48:33;97983.13;;;18.96;95.93
49315;BME280;36672;50.710;12.498;2022-08-19T05:51:02;97995.72;;;18.97;96.33
49315;BME280;36672;50.710;12.498;2022-08-19T05:53:28;98003.09;;;18.96;96.41
49315;BME280;36672;50.710;12.498;2022-08-19T05:55:53;98004.75;;;18.97;96.33
49315;BME280;36672;50.710;12.498;2022-08-19T05:58:18;98005.28;;;18.94;95.96
49315;BME280;36672;50.710;12.498;2022-08-19T06:00:44;98008.03;;;18.94;96.21
49315;BME280;36672;50.710;12.498;2022-08-19T06:03:10;98014.84;;;18.92;96.30
49315;BME280;36672;50.710;12.498;2022-08-19T06:05:35;98015.97;;;18.96;96.60
49315;BME280;36672;50.710;12.498;2022-08-19T06:08:00;98021.72;;;18.99;96.77
49315;BME280;36672;50.710;12.498;2022-08-19T06:10:25;98025.03;;;19.01;96.80
49315;BME280;36672;50.710;12.498;2022-08-19T06:12:51;98026.16;;;19.05;96.93
49315;BME280;36672;50.710;12.498;2022-08-19T06:15:16;98035.16;;;19.06;96.90
49315;BME280;36672;50.710;12.498;2022-08-19T06:17:42;98043.09;;;19.07;96.40
49315;BME280;36672;50.710;12.498;2022-08-19T06:20:10;98041.22;;;19.08;96.58
49315;BME280;36672;50.710;12.498;2022-08-19T06:22:39;98048.88;;;19.11;96.76
49315;BME280;36672;50.710;12.498;2022-08-19T06:25:04;98048.34;;;19.09;96.63
49315;BME280;36672;50.710;12.498;2022-08-19T06:27:30;98048.59;;;19.07;96.08
49315;BME280;36672;50.710;12.498;2022-08-19T06:29:56;98050.78;;;19.05;96.08
49315;BME280;36672;50.710;12.498;2022-08-19T06:32:22;98046.13;;;19.06;96.42
49315;BME280;36672;50.710;12.498;2022-08-19T06:34:47;98046.97;;;19.06;96.43
49315;BME280;36672;50.710;12.498;2022-08-19T06:37:12;98054.63;;;19.10;96.94
49315;BME280;36672;50.710;12.498;2022-08-19T06:39:38;98061.47;;;19.12;97.13
49315;BME280;36672;50.710;12.498;2022-08-19T06:42:04;98059.84;;;19.11;96.78
49315;BME280;36672;50.710;12.498;2022-08-19T06:44:33;98060.69;;;19.12;96.90
49315;BME280;36672;50.710;12.498;2022-08-19T06:47:00;98062.03;;;19.09;96.14
49315;BME280;36672;50.710;12.498;2022-08-19T06:49:27;98065.59;;;19.10;96.69
49315;BME280;36672;50.710;12.498;2022-08-19T06:51:55;98057.94;;;19.12;96.96
49315;BME280;36672;50.710;12.498;2022-08-19T06:54:22;98061.47;;;19.12;96.65
49315;BME280;36672;50.710;12.498;2022-08-19T06:56:48;98057.66;;;19.13;96.80
49315;BME280;36672;50.710;12.498;2022-08-19T06:59:14;98045.34;;;19.11;96.46
49315;BME280;36672;50.710;12.498;2022-08-19T07:01:42;98048.06;;;19.11;96.75
49315;BME280;36672;50.710;12.498;2022-08-19T07:04:08;98045.34;;;19.11;96.92
49315;BME280;36672;50.710;12.498;2022-08-19T07:06:34;98048.38;;;19.14;97.19
49315;BME280;36672;50.710;12.498;2022-08-19T07:08:59;98048.91;;;19.16;97.51
49315;BME280;36672;50.710;12.498;2022-08-19T07:11:25;98040.69;;;19.16;97.06
49315;BME280;36672;50.710;12.498;2022-08-19T07:13:50;98045.91;;;19.18;97.07
49315;BME280;36672;50.710;12.498;2022-08-19T07:16:16;98053.00;;;19.19;97.47
49315;BME280;36672;50.710;12.498;2022-08-19T07:18:44;98047.28;;;19.20;97.46
49315;BME280;36672;50.710;12.498;2022-08-19T07:21:16;98051.66;;;19.21;97.28
49315;BME280;36672;50.710;12.498;2022-08-19T07:23:42;98059.63;;;19.23;97.41
49315;BME280;36672;50.710;12.498;2022-08-19T07:26:09;98063.19;;;19.23;97.28
49315;BME280;36672;50.710;12.498;2022-08-19T07:28:35;98064.00;;;19.24;97.19
49315;BME280;36672;50.710;12.498;2022-08-19T07:31:04;98073.03;;;19.19;96.70
49315;BME280;36672;50.710;12.498;2022-08-19T07:33:29;98078.50;;;19.19;97.10
49315;BME280;36672;50.710;12.498;2022-08-19T07:35:57;98082.31;;;19.18;97.36
49315;BME280;36672;50.710;12.498;2022-08-19T07:38:22;98074.38;;;19.17;97.08
49315;BME280;36672;50.710;12.498;2022-08-19T07:40:47;98079.88;;;19.17;97.15
49315;BME280;36672;50.710;12.498;2022-08-19T07:43:13;98088.38;;;19.20;97.80
49315;BME280;36672;50.710;12.498;2022-08-19T07:45:40;98078.81;;;19.23;97.79
49315;BME280;36672;50.710;12.498;2022-08-19T07:48:05;98088.63;;;19.24;97.67
49315;BME280;36672;50.710;12.498;2022-08-19T07:50:30;98088.13;;;19.27;97.85
49315;BME280;36672;50.710;12.498;2022-08-19T07:52:55;98101.53;;;19.29;97.51
49315;BME280;36672;50.710;12.498;2022-08-19T07:55:22;98100.72;;;19.28;97.40
49315;BME280;36672;50.710;12.498;2022-08-19T07:57:48;98098.50;;;19.25;97.16
49315;BME280;36672;50.710;12.498;2022-08-19T08:00:13;98105.63;;;19.26;97.36
49315;BME280;36672;50.710;12.498;2022-08-19T08:02:39;98106.72;;;19.25;97.09
49315;BME280;36672;50.710;12.498;2022-08-19T08:05:07;98096.03;;;19.23;97.21
49315;BME280;36672;50.710;12.498;2022-08-19T08:07:51;98111.13;;;19.26;97.52
49315;BME280;36672;50.710;12.498;2022-08-19T08:10:35;98113.03;;;19.26;97.30
49315;BME280;36672;50.710;12.498;2022-08-19T08:13:00;98109.47;;;19.25;96.99
49315;BME280;36672;50.710;12.498;2022-08-19T08:15:26;98111.38;;;19.25;97.22
49315;BME280;36672;50.710;12.498;2022-08-19T08:17:51;98107.03;;;19.29;97.68
49315;BME280;36672;50.710;12.498;2022-08-19T08:20:16;98115.81;;;19.31;97.39
49315;BME280;36672;50.710;12.498;2022-08-19T08:22:42;98118.81;;;19.29;97.58
49315;BME280;36672;50.710;12.498;2022-08-19T08:25:31;98113.59;;;19.33;97.53
49315;BME280;36672;50.710;12.498;2022-08-19T08:27:56;98112.53;;;19.34;97.57
49315;BME280;36672;50.710;12.498;2022-08-19T08:30:25;98117.47;;;19.37;98.01
49315;BME280;36672;50.710;12.498;2022-08-19T08:32:51;98110.88;;;19.38;97.95
49315;BME280;36672;50.710;12.498;2022-08-19T08:35:18;98110.63;;;19.39;97.98
49315;BME280;36672;50.710;12.498;2022-08-19T08:37:44;98105.97;;;19.40;97.74
49315;BME280;36672;50.710;12.498;2022-08-19T08:40:14;98092.56;;;19.44;97.76
49315;BME280;36672;50.710;12.498;2022-08-19T08:42:44;98100.78;;;19.44;97.71
49315;BME280;36672;50.710;12.498;2022-08-19T08:45:12;98110.09;;;19.48;97.81
49315;BME280;36672;50.710;12.498;2022-08-19T08:47:40;98118.91;;;19.50;97.61
49315;BME280;36672;50.710;12.498;2022-08-19T08:50:16;98121.38;;;19.51;97.49
49315;BME280;36672;50.710;12.498;2022-08-19T08:52:47;98122.16;;;19.52;97.29
49315;BME280;36672;50.710;12.498;2022-08-19T08:55:18;98127.63;;;19.47;96.62
49315;BME280;36672;50.710;12.498;2022-08-19T09:00:19;98113.41;;;19.45;96.70
49315;BME280;36672;50.710;12.498;2022-08-19T09:02:46;98107.38;;;19.48;96.98
49315;BME280;36672;50.710;12.498;2022-08-19T09:05:11;98106.28;;;19.49;96.81
49315;BME280;36672;50.710;12.498;2022-08-19T09:10:23;98110.38;;;19.46;95.84
49315;BME280;36672;50.710;12.498;2022-08-19T09:15:35;98104.34;;;19.44;96.03
49315;BME280;36672;50.710;12.498;2022-08-19T09:18:03;98108.75;;;19.50;96.55
49315;BME280;36672;50.710;12.498;2022-08-19T09:20:28;98109.03;;;19.49;95.53
49315;BME280;36672;50.710;12.498;2022-08-19T09:22:54;98118.34;;;19.53;96.09
49315;BME280;36672;50.710;12.498;2022-08-19T09:25:20;98114.53;;;19.59;96.43
49315;BME280;36672;50.710;12.498;2022-08-19T09:27:47;98106.31;;;19.64;96.08
49315;BME280;36672;50.710;12.498;2022-08-19T09:30:15;98118.41;;;19.68;96.04
49315;BME280;36672;50.710;12.498;2022-08-19T09:32:40;98115.16;;;19.77;96.70
49315;BME280;36672;50.710;12.498;2022-08-19T09:35:07;98109.94;;;19.80;95.89
49315;BME280;36672;50.710;12.498;2022-08-19T09:37:32;98105.84;;;19.78;95.39
49315;BME280;36672;50.710;12.498;2022-08-19T09:39:58;98105.25;;;19.70;94.20
49315;BME280;36672;50.710;12.498;2022-08-19T09:42:23;98105.25;;;19.65;94.18
49315;BME280;36672;50.710;12.498;2022-08-19T09:44:48;98109.63;;;19.61;93.78
49315;BME280;36672;50.710;12.498;2022-08-19T09:47:13;98110.16;;;19.63;94.54
49315;BME280;36672;50.710;12.498;2022-08-19T09:49:42;98110.16;;;19.68;94.85
49315;BME280;36672;50.710;12.498;2022-08-19T09:52:10;98117.06;;;19.76;94.99
49315;BME280;36672;50.710;12.498;2022-08-19T09:54:36;98122.59;;;19.86;94.59
49315;BME280;36672;50.710;12.498;2022-08-19T09:57:01;98113.59;;;20.01;94.94
49315;BME280;36672;50.710;12.498;2022-08-19T09:59:27;98114.13;;;20.14;94.12
49315;BME280;36672;50.710;12.498;2022-08-19T10:01:52;98119.91;;;20.23;93.22
49315;BME280;36672;50.710;12.498;2022-08-19T10:04:17;98119.91;;;20.33;93.37
49315;BME280;36672;50.710;12.498;2022-08-19T10:06:43;98122.41;;;20.34;91.38
49315;BME280;36672;50.710;12.498;2022-08-19T10:09:09;98117.44;;;20.31;91.88
49315;BME280;36672;50.710;12.498;2022-08-19T10:11:34;98120.75;;;20.28;91.53
49315;BME280;36672;50.710;12.498;2022-08-19T10:14:02;98124.03;;;20.20;90.30
49315;BME280;36672;50.710;12.498;2022-08-19T10:16:27;98123.47;;;20.13;90.07
49315;BME280;36672;50.710;12.498;2022-08-19T10:18:53;98126.75;;;20.04;90.20
49315;BME280;36672;50.710;12.498;2022-08-19T10:21:20;98126.47;;;20.01;90.73
49315;BME280;36672;50.710;12.498;2022-08-19T10:23:46;98127.84;;;20.03;91.20
49315;BME280;36672;50.710;12.498;2022-08-19T10:26:13;98130.00;;;19.96;90.73
49315;BME280;36672;50.710;12.498;2022-08-19T10:28:39;98128.63;;;19.88;90.27
49315;BME280;36672;50.710;12.498;2022-08-19T10:31:05;98136.28;;;19.81;90.78
49315;BME280;36672;50.710;12.498;2022-08-19T10:33:31;98140.38;;;19.74;90.69
49315;BME280;36672;50.710;12.498;2022-08-19T10:36:10;98153.50;;;19.66;90.63
49315;BME280;36672;50.710;12.498;2022-08-19T10:38:36;98157.28;;;19.60;90.75
49315;BME280;36672;50.710;12.498;2022-08-19T10:41:09;98151.81;;;19.60;91.27
49315;BME280;36672;50.710;12.498;2022-08-19T10:43:34;98151.53;;;19.56;90.94
49315;BME280;36672;50.710;12.498;2022-08-19T10:46:03;98156.97;;;19.51;90.82
49315;BME280;36672;50.710;12.498;2022-08-19T10:48:29;98160.00;;;19.50;91.04
49315;BME280;36672;50.710;12.498;2022-08-19T10:50:54;98158.34;;;19.49;91.72
49315;BME280;36672;50.710;12.498;2022-08-19T10:53:40;98160.28;;;19.48;91.76
49315;BME280;36672;50.710;12.498;2022-08-19T10:56:05;98158.63;;;19.47;91.86
49315;BME280;36672;50.710;12.498;2022-08-19T10:58:49;98164.38;;;19.46;92.21
49315;BME280;36672;50.710;12.498;2022-08-19T11:01:14;98169.25;;;19.38;91.41
49315;BME280;36672;50.710;12.498;2022-08-19T11:03:39;98162.63;;;19.29;91.22
49315;BME280;36672;50.710;12.498;2022-08-19T11:06:05;98171.88;;;19.18;90.81
49315;BME280;36672;50.710;12.498;2022-08-19T11:08:32;98175.91;;;19.10;91.19
49315;BME280;36672;50.710;12.498;2022-08-19T11:10:58;98181.13;;;19.06;91.63
49315;BME280;36672;50.710;12.498;2022-08-19T11:13:25;98174.50;;;19.02;91.30
49315;BME280;36672;50.710;12.498;2022-08-19T11:15:57;98172.81;;;18.96;91.12
49315;BME280;36672;50.710;12.498;2022-08-19T11:18:23;98180.22;;;18.96;91.61
49315;BME280;36672;50.710;12.498;2022-08-19T11:20:48;98169.00;;;18.97;91.83
49315;BME280;36672;50.710;12.498;2022-08-19T11:23:14;98162.41;;;18.93;91.07
49315;BME280;36672;50.710;12.498;2022-08-19T11:25:39;98165.09;;;18.88;91.43
49315;BME280;36672;50.710;12.498;2022-08-19T11:28:04;98165.69;;;18.90;91.22
49315;BME280;36672;50.710;12.498;2022-08-19T11:30:30;98167.88;;;18.93;91.47
49315;BME280;36672;50.710;12.498;2022-08-19T11:32:55;98163.78;;;18.96;91.01
49315;BME280;36672;50.710;12.498;2022-08-19T11:35:20;98171.75;;;18.97;90.77
49315;BME280;36672;50.710;12.498;2022-08-19T11:37:48;98172.34;;;19.04;91.17
49315;BME280;36672;50.710;12.498;2022-08-19T11:40:13;98170.41;;;19.05;90.09
49315;BME280;36672;50.710;12.498;2022-08-19T11:42:38;98175.63;;;19.01;89.47
49315;BME280;36672;50.710;12.498;2022-08-19T11:45:22;98174.47;;;18.97;88.89
49315;BME280;36672;50.710;12.498;2022-08-19T11:47:48;98170.66;;;18.98;88.90
49315;BME280;36672;50.710;12.498;2022-08-19T11:50:13;98171.78;;;19.02;89.28
49315;BME280;36672;50.710;12.498;2022-08-19T11:52:39;98177.81;;;19.04;88.85
49315;BME280;36672;50.710;12.498;2022-08-19T11:55:04;98184.38;;;19.03;88.62
49315;BME280;36672;50.710;12.498;2022-08-19T11:57:30;98186.00;;;18.99;88.31
49315;BME280;36672;50.710;12.498;2022-08-19T11:59:55;98186.25;;;18.98;88.82
49315;BME280;36672;50.710;12.498;2022-08-19T12:02:20;98185.47;;;19.02;88.80
49315;BME280;36672;50.710;12.498;2022-08-19T12:04:46;98183.88;;;19.06;88.19
49315;BME280;36672;50.710;12.498;2022-08-19T12:07:12;98178.13;;;19.08;87.87
49315;BME280;36672;50.710;12.498;2022-08-19T12:09:37;98182.53;;;19.14;87.95
49315;BME280;36672;50.710;12.498;2022-08-19T12:12:04;98190.22;;;19.17;87.80
49315;BME280;36672;50.710;12.498;2022-08-19T12:14:29;98182.03;;;19.22;87.73
49315;BME280;36672;50.710;12.498;2022-08-19T12:16:56;98185.38;;;19.30;87.65
49315;BME280;36672;50.710;12.498;2022-08-19T12:19:22;98177.44;;;19.33;87.08
49315;BME280;36672;50.710;12.498;2022-08-19T12:21:47;98192.50;;;19.31;86.10
49315;BME280;36672;50.710;12.498;2022-08-19T12:24:12;98187.84;;;19.31;85.66
49315;BME280;36672;50.710;12.498;2022-08-19T12:26:38;98188.41;;;19.33;86.05
49315;BME280;36672;50.710;12.498;2022-08-19T12:29:03;98192.81;;;19.39;85.87
49315;BME280;36672;50.710;12.498;2022-08-19T12:31:28;98199.16;;;19.45;85.60
49315;BME280;36672;50.710;12.498;2022-08-19T12:33:54;98200.78;;;19.46;85.37
49315;BME280;36672;50.710;12.498;2022-08-19T12:36:21;98204.63;;;19.45;84.95
49315;BME280;36672;50.710;12.498;2022-08-19T12:38:48;98201.88;;;19.45;84.89
49315;BME280;36672;50.710;12.498;2022-08-19T12:41:14;98208.47;;;19.49;85.14
49315;BME280;36672;50.710;12.498;2022-08-19T12:43:42;98208.22;;;19.51;84.96
49315;BME280;36672;50.710;12.498;2022-08-19T12:46:07;98212.31;;;19.48;84.55
49315;BME280;36672;50.710;12.498;2022-08-19T12:48:33;98209.31;;;19.50;84.57
49315;BME280;36672;50.710;12.498;2022-08-19T12:50:59;98206.28;;;19.46;84.71
49315;BME280;36672;50.710;12.498;2022-08-19T12:53:24;98204.63;;;19.45;84.04
49315;BME280;36672;50.710;12.498;2022-08-19T12:55:56;98202.16;;;19.44;83.85
49315;BME280;36672;50.710;12.498;2022-08-19T12:58:22;98209.56;;;19.43;82.98
49315;BME280;36672;50.710;12.498;2022-08-19T13:00:48;98208.72;;;19.43;82.98
49315;BME280;36672;50.710;12.498;2022-08-19T13:03:14;98212.25;;;19.38;82.98